Главная страница
METAR-TAF:

METAR-TAF

Аэропорты :

Elmira / Corning, Нью-Йорк, США

широта: 42-09-23N, долгота: 076-54-10W, высота над уровнем моря: 291 м

Текущие метеонаблюдения

Эта сводка был подготовлена 30 минут назад, в 13:53 UTC
Ветер 5 Узел от юго-западный
Температура 24°C
Влажность 65%
Давление 1021 hPa
Видимость: 16.1 км
ясное небо

METAR: KELM 091353Z 22005KT 10SM CLR 24/17 A3014 RMK AO2 SLP199 T02390167

Время: 10:23 (14:23 UTC)

Прогноз

Эта сводка был подготовлена 38 минут назад, в 13:45 UTC
Прогноз действительный с 09-го 14 UTC до 10-го 12 UTC
Ветер 7 Узел от западный-юго-западный
Видимость: 10 км
Отдельные облака на высоте 6000 фута
С 10-го 0100 UTC
Ветер 3 Узел от западный
Видимость: 10 км
небольшая облачность на высоте 9000 фута
временами
С 10-го 09 UTC до 10-го 12 UTC
Видимость: 4.8 км
Рассеянная облачность на высоте 600 фута
дымка

TAF: KELM 091345Z 0914/1012 25007KT P6SM SCT060 FM100100 26003KT P6SM FEW090 TEMPO 1009/1012 3SM BR BKN006

Метеонаблюдения и прогнозы для более 4000 аэропортов (сводки METAR и TAF).

Имеющиеся станции представлены на карте желтыми и красными точками.

Чтобы увидеть название станции, наведите на нее мышь.

Затем щелкните, чтобы увидеть метеонаблюдения и метеопрогнозы.

Управление картой: чтобы увеличить масштаб, щелкните зеленые кнопки с черным крестиком; чтобы уменьшить масштаб, щелкните зеленую кнопку с тире; для просмотра соседних карт щелкайте зеленые стрелки.


METAR-TAF: